Time;durP1;ratioP1;P1;durP2;ratioP2;P2;SDS_P1;SDS_P2;PMS_P1;PMS_P2;Temp;Humidity;BMP_temperature;BMP_pressure;BME280_temperature;BME280_humidity;BME280_pressure;Samples;Min_cycle;Max_cycle;Signal;HPM_P1;HPM_P2
2022/12/27 00:01:54;;;;;;;12.90;2.75;;;16.70;92.90;;;;;;5052109;28;20489;-88
2022/12/27 00:04:20;;;;;;;11.88;3.10;;;16.70;92.90;;;;;;5043058;28;21326;-88
2022/12/27 00:06:46;;;;;;;6.75;2.40;;;16.70;92.90;;;;;;5038169;28;20029;-87
2022/12/27 00:09:11;;;;;;;6.30;2.38;;;16.70;93.00;;;;;;5032200;28;20028;-88
2022/12/27 00:11:38;;;;;;;9.57;2.90;;;16.60;92.90;;;;;;5051085;28;20108;-88
2022/12/27 00:14:04;;;;;;;10.90;2.67;;;16.60;92.90;;;;;;5033010;28;20025;-87
2022/12/27 00:16:31;;;;;;;6.25;2.00;;;16.70;92.90;;;;;;5039587;28;20125;-88
2022/12/27 00:18:57;;;;;;;6.22;2.25;;;16.60;93.00;;;;;;5042032;28;20032;-88
2022/12/27 00:21:23;;;;;;;6.60;2.30;;;16.60;93.00;;;;;;5052888;28;20032;-88
2022/12/27 00:23:52;;;;;;;11.85;3.15;;;16.70;93.00;;;;;;5042968;28;20028;-88
2022/12/27 00:26:23;;;;;;;7.25;2.30;;;16.60;93.00;;;;;;5042706;28;20072;-87
2022/12/27 00:28:49;;;;;;;13.35;2.50;;;16.70;93.00;;;;;;5044824;28;20064;-86
2022/12/27 00:31:15;;;;;;;7.68;2.42;;;16.70;93.00;;;;;;5047563;28;20025;-88
2022/12/27 00:33:43;;;;;;;14.13;2.97;;;16.60;93.00;;;;;;5040588;28;20025;-88
2022/12/27 00:36:13;;;;;;;3.78;2.03;;;16.70;93.00;;;;;;5035963;28;20033;-87
2022/12/27 00:38:38;;;;;;;3.88;2.40;;;16.60;93.10;;;;;;5046541;28;20014;-87
2022/12/27 00:41:04;;;;;;;5.63;1.83;;;16.60;93.10;;;;;;5047904;28;20055;-88
2022/12/27 00:43:30;;;;;;;6.68;2.08;;;16.60;93.00;;;;;;5043298;28;20059;-87
2022/12/27 00:45:56;;;;;;;7.20;2.40;;;16.60;93.10;;;;;;5051523;28;20021;-88
2022/12/27 00:48:22;;;;;;;8.45;2.58;;;16.60;93.00;;;;;;5051482;28;20430;-86
2022/12/27 00:50:47;;;;;;;8.68;2.50;;;16.60;93.00;;;;;;5037172;28;20037;-88
2022/12/27 00:53:13;;;;;;;7.65;2.28;;;16.60;93.40;;;;;;5042504;28;20035;-88
2022/12/27 00:55:42;;;;;;;6.10;2.15;;;16.60;93.00;;;;;;5049110;28;20048;-85
2022/12/27 00:58:07;;;;;;;8.00;1.83;;;16.60;93.00;;;;;;5040289;28;20029;-87
2022/12/27 01:00:33;;;;;;;9.43;2.50;;;16.60;93.00;;;;;;5046969;28;20036;-87
2022/12/27 01:02:59;;;;;;;11.95;2.20;;;16.60;93.10;;;;;;5031493;28;20021;-87
2022/12/27 01:05:24;;;;;;;11.65;2.45;;;16.60;93.10;;;;;;5031254;28;20052;-88
2022/12/27 01:07:50;;;;;;;14.27;2.05;;;16.60;93.10;;;;;;5038973;28;20406;-87
2022/12/27 01:10:16;;;;;;;5.18;1.77;;;16.60;93.10;;;;;;5052060;28;20147;-87
2022/12/27 01:12:41;;;;;;;4.82;1.60;;;16.60;93.10;;;;;;5041191;28;20075;-88
2022/12/27 01:15:08;;;;;;;6.35;2.55;;;16.60;93.10;;;;;;5043811;28;20036;-87
2022/12/27 01:17:34;;;;;;;3.72;1.90;;;16.60;93.00;;;;;;5056550;28;20033;-87
2022/12/27 01:19:59;;;;;;;5.97;2.25;;;16.60;93.00;;;;;;5056737;28;20466;-87
2022/12/27 01:22:25;;;;;;;5.00;2.10;;;16.60;93.10;;;;;;5044271;28;20139;-88
2022/12/27 01:24:50;;;;;;;5.45;2.25;;;16.60;93.00;;;;;;5046384;28;20035;-87
2022/12/27 01:27:16;;;;;;;9.68;2.08;;;16.60;93.00;;;;;;5054680;28;20104;-86
2022/12/27 01:29:42;;;;;;;3.92;2.00;;;16.60;93.10;;;;;;5035172;28;20036;-88
2022/12/27 01:32:07;;;;;;;6.53;1.60;;;16.60;93.10;;;;;;5044954;28;20044;-87
2022/12/27 01:34:33;;;;;;;10.00;1.80;;;16.60;93.10;;;;;;5049719;28;20021;-88
2022/12/27 01:36:59;;;;;;;11.18;2.35;;;16.60;93.60;;;;;;5041489;28;20026;-87
2022/12/27 01:39:24;;;;;;;6.35;1.90;;;16.60;93.60;;;;;;5051200;28;20633;-89
2022/12/27 01:44:48;;;;;;;6.97;1.90;;;16.60;93.50;;;;;;5056473;28;20032;-88
2022/12/27 01:47:29;;;;;;;4.45;2.22;;;16.60;93.50;;;;;;5055089;28;20076;-88
2022/12/27 01:50:23;;;;;;;14.40;2.42;;;16.60;93.70;;;;;;5054290;28;20033;-87
2022/12/27 01:52:57;;;;;;;10.75;2.65;;;16.60;93.70;;;;;;5041151;28;20116;-87
2022/12/27 01:55:30;;;;;;;13.27;2.78;;;16.60;93.70;;;;;;5034301;28;20064;-87
2022/12/27 01:58:05;;;;;;;12.85;2.95;;;16.60;93.70;;;;;;5041538;28;20019;-88
2022/12/27 02:00:31;;;;;;;7.00;2.50;;;16.70;93.70;;;;;;5038164;28;20021;-88
2022/12/27 02:02:57;;;;;;;26.85;3.10;;;16.70;93.70;;;;;;5049772;28;20027;-87
2022/12/27 02:05:24;;;;;;;6.65;2.17;;;16.70;93.70;;;;;;5040877;28;20075;-87
2022/12/27 02:08:21;;;;;;;10.88;2.22;;;16.70;93.70;;;;;;5050491;28;20097;-87
2022/12/27 02:10:47;;;;;;;9.35;2.10;;;16.70;93.70;;;;;;5042157;28;20055;-87
2022/12/27 02:13:14;;;;;;;9.43;1.75;;;16.70;93.60;;;;;;5043570;28;20029;-86
2022/12/27 02:15:40;;;;;;;6.55;1.92;;;16.70;93.60;;;;;;5054210;28;20021;-87
2022/12/27 02:18:05;;;;;;;5.25;1.70;;;16.70;93.70;;;;;;5054370;28;20028;-85
2022/12/27 02:20:46;;;;;;;16.98;2.67;;;16.70;93.70;;;;;;5046687;28;20017;-87
2022/12/27 02:26:35;;;;;;;4.78;1.92;;;16.70;93.60;;;;;;5035504;28;20049;-86
2022/12/27 02:29:10;;;;;;;5.43;1.52;;;16.70;93.60;;;;;;5034136;28;20025;-87
2022/12/27 02:32:00;;;;;;;8.18;2.15;;;16.70;93.60;;;;;;5037975;28;20541;-88
2022/12/27 02:34:30;;;;;;;3.85;1.73;;;16.70;93.60;;;;;;5035013;28;20549;-87
2022/12/27 02:37:01;;;;;;;6.72;1.50;;;16.70;93.60;;;;;;5045096;28;20682;-88
2022/12/27 02:39:32;;;;;;;8.25;1.85;;;16.70;93.60;;;;;;5054088;28;20402;-88
2022/12/27 02:53:31;;;;;;;2.85;1.65;;;16.70;93.60;;;;;;5055086;28;20090;-88
2022/12/27 02:59:04;;;;;;;3.05;1.20;;;16.70;93.60;;;;;;5046215;28;20032;-88
2022/12/27 03:05:11;;;;;;;4.78;1.60;;;16.60;93.40;;;;;;5048742;28;20051;-86
2022/12/27 03:07:46;;;;;;;2.53;1.20;;;16.70;93.50;;;;;;5042083;28;20104;-88
2022/12/27 03:16:40;;;;;;;5.97;2.40;;;16.70;93.60;;;;;;5054331;28;20532;-86
2022/12/27 03:27:35;;;;;;;5.70;1.45;;;16.70;93.40;;;;;;5051396;28;20028;-88
2022/12/27 03:33:14;;;;;;;2.38;1.23;;;16.60;93.40;;;;;;5051602;28;20047;-88
2022/12/27 03:38:46;;;;;;;1.98;1.02;;;16.60;93.30;;;;;;5042535;28;20056;-88
2022/12/27 03:44:23;;;;;;;2.80;0.88;;;16.60;93.30;;;;;;5054068;28;20041;-87
2022/12/27 03:47:01;;;;;;;3.25;1.20;;;16.60;93.30;;;;;;5052627;28;20398;-86
2022/12/27 03:49:47;;;;;;;3.95;1.60;;;16.60;93.30;;;;;;5050357;28;20025;-88
2022/12/27 03:52:36;;;;;;;1.48;1.10;;;16.60;93.30;;;;;;5069060;28;20032;-88
2022/12/27 03:55:03;;;;;;;3.28;1.55;;;16.60;93.30;;;;;;5069108;28;20436;-86
2022/12/27 03:57:29;;;;;;;4.28;1.80;;;16.60;93.30;;;;;;5066162;28;20029;-87
2022/12/27 03:59:55;;;;;;;2.55;1.15;;;16.60;93.30;;;;;;5043838;28;20017;-87
2022/12/27 04:02:20;;;;;;;3.05;1.10;;;16.60;93.30;;;;;;5043862;28;20494;-86
2022/12/27 04:04:47;;;;;;;2.30;0.90;;;16.60;93.30;;;;;;5047894;28;20478;-88
2022/12/27 04:07:13;;;;;;;2.63;1.33;;;16.60;93.30;;;;;;5053440;28;20036;-88
2022/12/27 04:37:02;;;;;;;2.35;1.20;;;16.60;93.50;;;;;;5046332;28;20072;-87
2022/12/27 04:39:27;;;;;;;3.50;1.40;;;16.50;93.40;;;;;;5049974;28;20116;-88
2022/12/27 04:56:05;;;;;;;1.40;0.90;;;16.50;93.40;;;;;;5048012;28;20078;-85
2022/12/27 04:58:31;;;;;;;3.40;1.15;;;16.50;93.30;;;;;;5040928;28;20024;-87
2022/12/27 05:03:45;;;;;;;2.83;1.27;;;16.50;93.30;;;;;;5039143;28;20049;-87
2022/12/27 05:06:11;;;;;;;2.03;1.20;;;16.40;93.30;;;;;;5052501;28;20038;-88
2022/12/27 05:14:12;;;;;;;2.20;1.10;;;16.40;93.20;;;;;;5032988;28;20033;-87
2022/12/27 05:16:40;;;;;;;1.38;0.93;;;16.40;93.20;;;;;;5031445;28;20059;-86
2022/12/27 05:19:08;;;;;;;1.25;1.00;;;16.40;93.30;;;;;;5046437;28;20025;-88
2022/12/27 05:25:33;;;;;;;8.23;1.00;;;16.40;93.30;;;;;;5040140;28;20140;-87
2022/12/27 05:27:12;;;;;;;2.25;1.10;;;16.40;93.20;;;;;;5038159;28;20056;-88
2022/12/27 05:29:37;;;;;;;3.33;1.10;;;16.40;93.20;;;;;;5034672;28;20021;-87
2022/12/27 05:32:03;;;;;;;3.08;0.90;;;16.40;93.20;;;;;;5043001;28;20502;-84
2022/12/27 05:34:28;;;;;;;6.72;1.17;;;16.40;93.20;;;;;;5068126;28;20029;-86
2022/12/27 05:36:54;;;;;;;4.32;1.35;;;16.40;93.20;;;;;;5037568;28;20514;-87
2022/12/27 05:39:19;;;;;;;2.25;0.98;;;16.40;93.20;;;;;;5033665;28;20017;-86
2022/12/27 05:41:45;;;;;;;2.53;0.90;;;16.40;93.20;;;;;;5045722;28;20024;-87
2022/12/27 05:44:10;;;;;;;2.63;1.08;;;16.40;93.30;;;;;;5043962;28;20025;-85
2022/12/27 05:46:36;;;;;;;1.58;0.82;;;16.30;93.50;;;;;;5050523;28;20024;-87
2022/12/27 05:49:02;;;;;;;3.20;0.90;;;16.40;93.20;;;;;;5067402;28;20017;-85
2022/12/27 05:51:27;;;;;;;14.10;1.60;;;16.40;93.20;;;;;;5047208;28;20025;-86
2022/12/27 05:53:53;;;;;;;2.78;1.15;;;16.40;93.30;;;;;;5043893;28;20393;-87
2022/12/27 05:56:20;;;;;;;19.48;1.67;;;16.40;93.50;;;;;;5066973;28;20056;-87
2022/12/27 05:58:46;;;;;;;12.98;1.83;;;16.40;93.50;;;;;;5043280;28;20096;-87
2022/12/27 06:01:15;;;;;;;6.70;1.73;;;16.50;93.40;;;;;;5043529;28;20025;-87
2022/12/27 06:03:41;;;;;;;11.20;1.27;;;16.50;93.40;;;;;;5047537;28;20017;-85
2022/12/27 06:06:07;;;;;;;3.58;1.17;;;16.50;93.40;;;;;;5039145;28;20082;-87
2022/12/27 06:08:33;;;;;;;5.22;1.08;;;16.50;93.30;;;;;;5051454;28;20491;-86
2022/12/27 06:11:09;;;;;;;4.60;1.25;;;16.50;93.30;;;;;;5038702;28;20029;-89
2022/12/27 06:13:35;;;;;;;8.52;1.40;;;16.50;93.30;;;;;;5049320;28;20025;-86
2022/12/27 06:16:03;;;;;;;8.45;1.40;;;16.50;93.20;;;;;;5049492;28;20017;-87
2022/12/27 06:18:30;;;;;;;18.63;1.20;;;16.50;93.50;;;;;;5040745;28;20498;-85
2022/12/27 06:21:11;;;;;;;5.68;1.17;;;16.60;93.80;;;;;;5054762;28;20017;-85
2022/12/27 06:23:39;;;;;;;3.92;1.00;;;16.60;93.70;;;;;;5051943;28;20009;-85
2022/12/27 06:26:12;;;;;;;4.78;1.20;;;16.60;93.70;;;;;;5047259;28;20164;-86
2022/12/27 06:28:37;;;;;;;2.83;0.90;;;16.60;93.70;;;;;;5050018;28;20156;-89
2022/12/27 06:31:03;;;;;;;9.68;1.63;;;16.60;93.60;;;;;;5039447;28;20163;-89
2022/12/27 06:33:29;;;;;;;4.00;1.27;;;16.60;93.50;;;;;;5045251;28;20033;-89
2022/12/27 06:35:55;;;;;;;5.95;1.10;;;16.60;93.50;;;;;;5052421;28;20139;-90
2022/12/27 06:38:21;;;;;;;1.77;0.73;;;16.60;93.40;;;;;;5048100;28;20025;-89
2022/12/27 06:40:46;;;;;;;4.35;1.30;;;16.60;93.40;;;;;;5043900;28;20061;-89
2022/12/27 06:43:12;;;;;;;4.05;1.38;;;16.50;92.30;;;;;;5045125;28;20021;-90
2022/12/27 06:45:38;;;;;;;3.35;1.05;;;16.40;91.80;;;;;;5053256;28;20063;-88
2022/12/27 06:48:04;;;;;;;2.10;0.93;;;16.40;91.60;;;;;;5053174;28;20028;-88
2022/12/27 06:50:30;;;;;;;12.05;1.50;;;16.40;91.80;;;;;;5045183;28;20029;-88
2022/12/27 06:52:56;;;;;;;6.13;1.80;;;16.40;91.90;;;;;;5052188;28;20112;-88
2022/12/27 06:55:21;;;;;;;15.23;2.08;;;16.20;77.80;;;;;;5041468;28;20029;-92
2022/12/27 06:57:47;;;;;;;5.60;1.83;;;15.40;77.60;;;;;;5053694;28;20028;-93
2022/12/27 07:00:13;;;;;;;3.53;1.30;;;15.50;80.40;;;;;;5045929;28;20028;-92
2022/12/27 07:02:39;;;;;;;1.52;1.17;;;15.50;70.80;;;;;;5046790;28;20176;-92
2022/12/27 07:05:05;;;;;;;1.40;1.00;;;15.50;63.50;;;;;;5041037;28;20021;-90
2022/12/27 07:07:31;;;;;;;1.50;1.20;;;14.90;66.80;;;;;;5049653;28;20061;-92
2022/12/27 07:09:57;;;;;;;1.95;1.40;;;15.00;71.90;;;;;;5069403;28;20056;-89
2022/12/27 07:12:22;;;;;;;1.77;1.08;;;15.10;74.10;;;;;;5043876;28;20026;-90
2022/12/27 07:14:48;;;;;;;2.25;1.38;;;15.30;76.20;;;;;;5044759;28;20037;-90
2022/12/27 07:17:13;;;;;;;2.83;1.08;;;15.30;78.10;;;;;;5052787;28;20385;-90
2022/12/27 07:19:39;;;;;;;1.73;1.42;;;15.40;79.40;;;;;;5069470;28;20066;-89
2022/12/27 07:22:04;;;;;;;2.50;1.17;;;15.40;80.70;;;;;;5041069;28;20063;-90
2022/12/27 07:24:32;;;;;;;3.53;1.20;;;15.50;81.80;;;;;;5050388;28;20094;-89
2022/12/27 07:26:58;;;;;;;4.90;1.00;;;15.50;82.70;;;;;;5042106;28;20116;-90
2022/12/27 07:29:23;;;;;;;1.83;1.23;;;15.50;83.40;;;;;;5049198;28;20494;-89
2022/12/27 07:31:49;;;;;;;1.52;1.10;;;15.50;84.00;;;;;;5045358;28;20025;-90
2022/12/27 07:34:14;;;;;;;2.47;1.13;;;15.60;84.60;;;;;;5047882;28;20021;-88
2022/12/27 07:36:40;;;;;;;4.05;0.90;;;15.60;85.00;;;;;;5035770;28;20040;-89
2022/12/27 07:39:07;;;;;;;2.78;0.93;;;15.70;85.40;;;;;;5048665;28;20071;-89
2022/12/27 07:41:33;;;;;;;3.42;1.08;;;15.70;85.70;;;;;;5048783;28;20078;-90
2022/12/27 07:43:58;;;;;;;1.30;1.08;;;15.80;85.80;;;;;;5033118;28;20029;-90
2022/12/27 07:46:25;;;;;;;2.08;0.95;;;15.90;85.90;;;;;;5040928;28;20052;-89
2022/12/27 07:48:55;;;;;;;1.13;0.90;;;15.90;86.10;;;;;;5039632;28;20021;-89
2022/12/27 07:51:22;;;;;;;4.35;1.17;;;16.00;86.30;;;;;;5041382;28;20025;-89
2022/12/27 07:53:48;;;;;;;1.10;0.70;;;15.90;86.60;;;;;;5042848;28;20471;-86
2022/12/27 07:56:20;;;;;;;3.28;1.02;;;16.00;86.90;;;;;;5045261;28;20402;-88
2022/12/27 07:58:48;;;;;;;1.20;0.70;;;16.00;87.30;;;;;;5052031;28;20028;-86
2022/12/27 08:01:16;;;;;;;1.48;0.90;;;16.00;87.50;;;;;;5052328;28;20042;-89
2022/12/27 08:03:42;;;;;;;3.00;1.00;;;16.10;87.50;;;;;;5035714;28;20017;-89
2022/12/27 08:06:20;;;;;;;1.15;0.80;;;16.20;87.40;;;;;;5051609;28;20033;-87
2022/12/27 08:08:47;;;;;;;1.88;0.90;;;16.30;87.00;;;;;;5044120;28;20037;-85
2022/12/27 08:11:12;;;;;;;1.25;1.02;;;16.40;86.70;;;;;;5044683;28;20029;-87
2022/12/27 08:13:38;;;;;;;2.67;0.80;;;16.50;86.70;;;;;;5043650;28;20086;-86
2022/12/27 08:16:05;;;;;;;1.10;1.02;;;16.60;86.70;;;;;;5049938;28;20074;-86
2022/12/27 08:18:30;;;;;;;1.98;1.10;;;16.60;86.50;;;;;;5053115;28;20067;-86
2022/12/27 08:20:56;;;;;;;1.15;0.90;;;16.50;86.90;;;;;;5049314;28;20021;-87
2022/12/27 08:23:21;;;;;;;3.60;1.20;;;16.60;86.80;;;;;;5046524;28;20059;-87
2022/12/27 08:25:47;;;;;;;1.02;1.00;;;16.70;87.00;;;;;;5059494;28;20077;-87
2022/12/27 08:28:15;;;;;;;3.70;0.90;;;16.60;87.20;;;;;;5042234;28;20029;-85
2022/12/27 08:30:42;;;;;;;0.98;0.75;;;16.60;87.80;;;;;;5043211;28;20033;-87
2022/12/27 08:33:08;;;;;;;1.35;1.08;;;16.50;88.20;;;;;;5046118;28;20025;-88
2022/12/27 08:35:39;;;;;;;1.33;0.80;;;16.50;88.50;;;;;;5050148;28;20063;-86
2022/12/27 08:38:05;;;;;;;2.05;1.00;;;16.50;88.90;;;;;;5056077;28;20618;-85
2022/12/27 08:40:30;;;;;;;0.70;0.70;;;16.50;89.10;;;;;;5050193;28;20064;-88
2022/12/27 08:42:56;;;;;;;1.00;0.70;;;16.50;89.20;;;;;;5044213;28;20057;-88
2022/12/27 08:45:21;;;;;;;1.80;1.00;;;16.50;89.40;;;;;;5048849;28;20098;-87
2022/12/27 08:47:47;;;;;;;1.83;0.90;;;16.50;89.60;;;;;;5066354;28;20021;-87
2022/12/27 08:50:12;;;;;;;1.08;0.90;;;16.50;89.70;;;;;;5046361;28;20048;-85
2022/12/27 08:52:38;;;;;;;0.95;0.90;;;16.60;89.90;;;;;;5064349;28;20032;-85
2022/12/27 08:55:04;;;;;;;1.83;1.00;;;16.60;90.00;;;;;;5047733;28;20021;-87
2022/12/27 08:57:29;;;;;;;5.63;1.15;;;16.60;90.00;;;;;;5050655;28;20024;-87
2022/12/27 08:59:55;;;;;;;1.42;0.88;;;16.60;90.00;;;;;;5067694;28;20021;-88
2022/12/27 09:02:21;;;;;;;2.10;0.73;;;16.60;90.10;;;;;;5052028;28;20047;-87
2022/12/27 09:04:46;;;;;;;1.48;0.93;;;16.70;90.20;;;;;;5050225;28;20605;-85
2022/12/27 09:07:12;;;;;;;1.23;1.00;;;16.70;90.20;;;;;;5040588;28;20538;-88
2022/12/27 09:09:37;;;;;;;2.10;1.30;;;16.70;90.20;;;;;;5050216;28;20506;-88
2022/12/27 09:12:03;;;;;;;1.77;0.98;;;16.70;90.30;;;;;;5044532;28;20032;-87
2022/12/27 09:14:28;;;;;;;1.33;1.02;;;16.70;90.30;;;;;;5067592;28;20021;-87
2022/12/27 09:16:54;;;;;;;2.22;1.35;;;16.70;90.30;;;;;;5050046;28;20095;-89
2022/12/27 09:19:19;;;;;;;3.17;1.15;;;16.80;90.50;;;;;;5052063;28;20424;-86
2022/12/27 09:21:45;;;;;;;4.35;1.42;;;16.70;90.60;;;;;;5049587;28;20029;-87
2022/12/27 09:24:12;;;;;;;2.65;1.42;;;16.80;90.60;;;;;;5046803;28;20021;-85
2022/12/27 09:26:37;;;;;;;2.72;1.33;;;16.80;90.70;;;;;;5047382;28;20393;-85
2022/12/27 09:29:03;;;;;;;8.48;1.65;;;16.80;90.80;;;;;;5051613;28;20025;-85
2022/12/27 09:31:29;;;;;;;3.72;1.58;;;16.80;90.80;;;;;;5050304;28;20078;-86
2022/12/27 09:33:55;;;;;;;3.63;1.80;;;16.80;90.90;;;;;;5042831;28;20475;-86
2022/12/27 09:36:23;;;;;;;8.30;1.83;;;16.80;90.90;;;;;;5053593;28;20051;-87
2022/12/27 09:38:51;;;;;;;9.23;1.83;;;16.80;90.90;;;;;;5070953;28;20021;-86
2022/12/27 09:41:35;;;;;;;3.45;1.75;;;16.80;91.00;;;;;;5046329;28;20029;-87
2022/12/27 09:44:21;;;;;;;3.90;1.80;;;16.90;91.00;;;;;;5040640;28;20123;-86
2022/12/27 09:47:01;;;;;;;4.95;2.20;;;16.90;91.10;;;;;;5046177;28;20025;-86
2022/12/27 09:49:47;;;;;;;4.95;2.00;;;16.90;91.10;;;;;;5046364;28;20059;-87
2022/12/27 09:52:26;;;;;;;4.53;2.22;;;16.90;91.10;;;;;;5042482;28;20047;-87
2022/12/27 09:55:01;;;;;;;2.60;1.65;;;16.90;91.20;;;;;;5037527;28;20021;-85
2022/12/27 09:57:39;;;;;;;2.30;1.77;;;16.90;91.20;;;;;;5054441;28;20558;-87
2022/12/27 10:00:20;;;;;;;4.22;2.05;;;16.90;91.20;;;;;;5045799;28;20021;-85
2022/12/27 10:02:49;;;;;;;7.47;2.25;;;17.00;91.20;;;;;;5070738;28;20026;-86
2022/12/27 10:05:21;;;;;;;6.03;2.58;;;16.90;91.20;;;;;;5044135;28;20076;-87
2022/12/27 10:08:22;;;;;;;5.10;2.50;;;16.90;91.30;;;;;;5046145;28;20025;-85
2022/12/27 10:10:54;;;;;;;10.98;2.85;;;17.00;91.30;;;;;;5047729;28;20028;-84
2022/12/27 10:13:29;;;;;;;4.20;2.30;;;17.00;91.30;;;;;;5041860;28;20022;-86
2022/12/27 10:16:10;;;;;;;5.72;2.60;;;17.00;91.30;;;;;;5043905;28;20386;-87
2022/12/27 10:19:06;;;;;;;4.60;2.17;;;17.00;91.40;;;;;;5053727;28;20021;-86
2022/12/27 10:21:37;;;;;;;4.40;2.38;;;17.00;91.40;;;;;;5050485;28;20025;-86
2022/12/27 10:24:21;;;;;;;5.53;2.55;;;17.10;91.40;;;;;;5053686;28;20023;-87
2022/12/27 10:26:47;;;;;;;6.80;2.60;;;17.00;91.40;;;;;;5053448;28;20084;-87
2022/12/27 10:29:22;;;;;;;4.53;2.47;;;17.00;91.40;;;;;;5053365;28;20486;-88
2022/12/27 10:31:48;;;;;;;6.45;2.83;;;17.10;91.40;;;;;;5051873;28;20056;-85
2022/12/27 10:34:16;;;;;;;5.40;2.72;;;17.10;91.50;;;;;;5047888;28;20041;-88
2022/12/27 10:36:43;;;;;;;7.28;2.60;;;17.10;91.40;;;;;;5051661;28;20025;-86
2022/12/27 10:39:19;;;;;;;9.18;3.15;;;17.10;91.40;;;;;;5070157;28;20406;-87
2022/12/27 10:42:22;;;;;;;4.18;2.60;;;17.10;91.40;;;;;;5070669;28;20108;-86
2022/12/27 10:44:48;;;;;;;5.10;2.25;;;17.10;91.40;;;;;;5039410;28;20037;-85
2022/12/27 10:47:15;;;;;;;5.97;3.00;;;17.10;91.70;;;;;;5033280;28;20694;-87
2022/12/27 10:49:44;;;;;;;6.18;2.97;;;17.10;91.40;;;;;;5042523;28;20029;-88
2022/12/27 10:52:15;;;;;;;7.63;3.20;;;17.10;91.70;;;;;;5033515;28;20032;-87
2022/12/27 10:54:52;;;;;;;9.82;2.88;;;17.10;91.40;;;;;;5052014;28;20029;-87
2022/12/27 10:57:25;;;;;;;7.22;2.97;;;17.10;91.40;;;;;;5045665;28;20060;-87
2022/12/27 11:00:12;;;;;;;7.25;3.05;;;17.20;91.50;;;;;;5049224;28;20552;-88
2022/12/27 11:02:49;;;;;;;9.05;3.75;;;17.20;91.50;;;;;;5050394;28;20021;-88
2022/12/27 11:05:23;;;;;;;5.40;3.08;;;17.20;91.50;;;;;;5053168;28;20530;-87
2022/12/27 11:07:49;;;;;;;12.75;3.35;;;17.20;91.50;;;;;;5041394;28;20025;-87
2022/12/27 11:10:21;;;;;;;4.15;2.80;;;17.20;91.50;;;;;;5046702;28;20372;-88
2022/12/27 11:12:54;;;;;;;8.88;3.25;;;17.20;91.50;;;;;;5061872;28;20029;-87
2022/12/27 11:15:19;;;;;;;6.88;3.03;;;17.20;91.50;;;;;;5041810;28;20022;-87
2022/12/27 11:17:50;;;;;;;5.57;2.78;;;17.20;91.50;;;;;;5051130;28;20029;-87
2022/12/27 11:20:32;;;;;;;7.22;2.70;;;17.20;91.50;;;;;;5048316;28;20053;-87
2022/12/27 11:23:09;;;;;;;8.13;3.33;;;17.20;91.50;;;;;;5050568;28;20036;-84
2022/12/27 11:25:54;;;;;;;5.30;2.63;;;17.20;91.50;;;;;;5046838;28;20512;-86
2022/12/27 11:28:30;;;;;;;5.95;2.95;;;17.20;91.50;;;;;;5047616;28;20052;-85
2022/12/27 11:31:02;;;;;;;4.43;2.42;;;17.20;91.50;;;;;;5041133;28;20029;-86
2022/12/27 11:33:42;;;;;;;5.50;3.03;;;17.20;91.40;;;;;;5054341;28;20027;-87
2022/12/27 11:36:09;;;;;;;;;;;17.20;91.40;;;;;;5048894;28;20119;-85
2022/12/27 11:38:36;;;;;;;7.65;2.78;;;17.30;91.40;;;;;;5051296;28;20366;-88
2022/12/27 11:41:23;;;;;;;8.98;3.33;;;17.30;91.40;;;;;;5071362;28;20127;-87
2022/12/27 11:43:59;;;;;;;6.15;2.65;;;17.20;91.40;;;;;;5049144;28;20028;-86
2022/12/27 11:46:52;;;;;;;9.25;3.63;;;17.30;91.50;;;;;;5052667;28;20099;-83
2022/12/27 11:49:50;;;;;;;5.47;2.85;;;17.30;91.50;;;;;;5048369;28;20430;-84
2022/12/27 11:53:02;;;;;;;9.70;3.60;;;17.30;91.50;;;;;;4970277;28;20687;-88
2022/12/27 11:56:06;;;;;;;134.50;33.92;;;17.40;91.60;;;;;;4982319;28;20031;-88
2022/12/27 11:58:59;;;;;;;70.90;16.38;;;17.50;91.90;;;;;;4958231;28;20131;-85
2022/12/27 12:01:26;;;;;;;31.63;9.45;;;17.60;92.00;;;;;;4975527;28;20026;-87
2022/12/27 12:04:00;;;;;;;35.92;8.55;;;17.60;92.10;;;;;;4974372;28;20042;-89
2022/12/27 12:07:04;;;;;;;17.73;6.20;;;17.60;92.00;;;;;;4973966;28;20158;-89
2022/12/27 12:09:43;;;;;;;18.98;4.72;;;17.50;87.30;;;;;;4930745;28;20055;-89
2022/12/27 12:12:44;;;;;;;13.63;4.30;;;17.40;85.10;;;;;;4974719;28;20030;-84
2022/12/27 12:15:36;;;;;;;13.02;4.13;;;17.30;80.90;;;;;;4988195;28;20116;-88
2022/12/27 12:18:20;;;;;;;12.80;3.28;;;17.30;81.90;;;;;;4987707;28;20114;-86
2022/12/27 12:21:23;;;;;;;11.23;2.88;;;17.20;81.10;;;;;;4980428;28;20039;-87
2022/12/27 12:24:13;;;;;;;10.93;2.58;;;17.10;79.80;;;;;;4991557;28;20038;-87
2022/12/27 12:27:06;;;;;;;6.07;2.28;;;17.00;78.40;;;;;;4972416;28;20042;-92
2022/12/27 12:30:09;;;;;;;6.82;1.92;;;17.00;77.40;;;;;;5036351;28;20040;-92
2022/12/27 12:32:59;;;;;;;5.97;1.80;;;16.90;77.50;;;;;;5055055;28;20482;-91
2022/12/27 12:36:02;;;;;;;5.32;1.85;;;16.90;76.10;;;;;;5046274;28;20486;-92
2022/12/27 12:38:49;;;;;;;3.85;1.90;;;16.80;76.00;;;;;;5054980;28;20414;-92
2022/12/27 12:41:41;;;;;;;7.57;1.73;;;16.80;75.00;;;;;;5053578;28;20513;-92
2022/12/27 12:44:29;;;;;;;4.47;1.63;;;16.70;74.60;;;;;;5044077;28;20094;-89
2022/12/27 12:47:09;;;;;;;2.75;1.50;;;16.70;74.60;;;;;;5052408;28;20052;-92
2022/12/27 12:49:38;;;;;;;6.38;1.92;;;16.70;74.10;;;;;;5049384;28;20028;-91
2022/12/27 12:52:23;;;;;;;3.70;1.45;;;16.60;73.90;;;;;;5050335;28;20022;-93
2022/12/27 12:54:58;;;;;;;1.88;1.13;;;16.60;74.30;;;;;;5053033;28;20033;-91
2022/12/27 12:58:08;;;;;;;3.45;1.40;;;16.70;77.20;;;;;;5053894;28;20037;-92
2022/12/27 13:01:11;;;;;;;3.65;1.70;;;16.70;78.10;;;;;;5048739;28;20033;-91
2022/12/27 13:03:44;;;;;;;4.00;1.60;;;16.70;79.30;;;;;;5018728;28;20505;-92
2022/12/27 13:06:45;;;;;;;2.88;1.65;;;16.80;80.00;;;;;;5049368;28;20067;-93
2022/12/27 13:09:30;;;;;;;4.32;1.23;;;16.80;80.30;;;;;;4969505;28;20070;-91
2022/12/27 13:12:23;;;;;;;6.57;1.90;;;16.80;80.80;;;;;;4977194;28;20045;-90
2022/12/27 13:15:00;;;;;;;4.07;1.88;;;16.80;81.30;;;;;;4953690;28;20041;-88
2022/12/27 13:17:49;;;;;;;4.75;1.65;;;16.90;81.80;;;;;;4969922;28;20035;-89
2022/12/27 13:20:27;;;;;;;6.28;2.10;;;16.90;82.00;;;;;;4965779;28;20039;-90
2022/12/27 13:23:01;;;;;;;6.85;1.98;;;16.90;82.40;;;;;;4971419;28;20580;-89
2022/12/27 13:25:49;;;;;;;4.65;2.30;;;16.90;82.70;;;;;;4954333;29;20505;-90
2022/12/27 13:28:36;;;;;;;6.15;2.13;;;17.00;83.10;;;;;;4957169;28;20058;-89
2022/12/27 13:31:30;;;;;;;6.70;2.08;;;17.00;83.40;;;;;;4958752;28;20022;-90
2022/12/27 13:34:37;;;;;;;6.80;2.05;;;17.00;83.80;;;;;;4969079;28;20038;-89
2022/12/27 13:37:27;;;;;;;5.15;1.95;;;17.00;84.20;;;;;;4958446;28;20037;-88
2022/12/27 13:40:28;;;;;;;6.38;2.63;;;17.00;84.50;;;;;;4959620;28;20035;-88
2022/12/27 13:43:14;;;;;;;6.93;2.30;;;17.10;84.80;;;;;;4937986;28;20027;-91
2022/12/27 13:46:01;;;;;;;3.72;1.83;;;17.10;85.00;;;;;;5006485;28;20494;-90
2022/12/27 13:48:42;;;;;;;5.22;2.13;;;17.10;85.30;;;;;;5053458;28;20109;-90
2022/12/27 13:51:35;;;;;;;5.63;2.20;;;17.10;85.40;;;;;;5048423;28;20065;-90
2022/12/27 13:54:23;;;;;;;8.70;2.28;;;17.00;85.60;;;;;;5065587;28;20131;-89
2022/12/27 13:56:51;;;;;;;3.65;1.75;;;17.10;85.80;;;;;;5053108;28;20532;-91
2022/12/27 13:59:17;;;;;;;9.07;2.05;;;17.10;86.00;;;;;;5055202;28;20025;-90
2022/12/27 14:02:11;;;;;;;5.72;2.20;;;17.10;86.10;;;;;;5054093;28;20501;-91
2022/12/27 14:05:31;;;;;;;6.65;2.17;;;17.10;86.20;;;;;;5039432;28;20075;-90
2022/12/27 14:08:00;;;;;;;6.05;2.33;;;17.10;86.40;;;;;;5047384;28;20398;-91
2022/12/27 14:10:36;;;;;;;4.70;1.55;;;17.10;86.60;;;;;;5041883;28;20104;-91
2022/12/27 14:13:02;;;;;;;13.90;2.20;;;17.10;86.70;;;;;;5046109;28;20416;-89
2022/12/27 14:15:49;;;;;;;5.72;2.22;;;17.10;86.80;;;;;;5050542;28;20548;-91
2022/12/27 14:18:30;;;;;;;7.30;2.60;;;17.20;87.00;;;;;;5054164;28;20031;-91
2022/12/27 14:21:08;;;;;;;5.15;1.83;;;17.10;87.10;;;;;;5068865;28;20017;-90
2022/12/27 14:24:07;;;;;;;6.00;2.50;;;17.20;87.20;;;;;;5041350;28;20120;-89
2022/12/27 14:27:19;;;;;;;3.45;2.20;;;17.20;87.30;;;;;;5049843;28;20032;-91
2022/12/27 14:30:38;;;;;;;7.25;1.95;;;17.20;87.40;;;;;;5054900;28;20021;-91
2022/12/27 14:33:25;;;;;;;3.70;1.65;;;17.10;87.50;;;;;;5020971;28;20034;-89
2022/12/27 14:36:26;;;;;;;3.10;1.98;;;17.10;87.60;;;;;;5050184;28;20052;-89
2022/12/27 14:39:22;;;;;;;13.77;2.58;;;17.10;87.70;;;;;;5068773;28;20021;-90
2022/12/27 14:42:25;;;;;;;3.22;1.70;;;17.10;87.80;;;;;;5051062;28;20021;-91
2022/12/27 14:45:28;;;;;;;2.50;1.92;;;17.10;87.80;;;;;;5069065;28;20549;-88
2022/12/27 14:48:22;;;;;;;3.53;1.55;;;17.10;87.90;;;;;;5052832;28;20029;-90
2022/12/27 14:51:08;;;;;;;4.30;2.03;;;17.10;88.00;;;;;;5045062;28;20039;-90
2022/12/27 14:54:07;;;;;;;3.78;1.98;;;17.10;88.00;;;;;;5045193;28;20109;-89
2022/12/27 14:56:50;;;;;;;5.82;2.20;;;17.10;88.10;;;;;;5051038;28;20029;-90
2022/12/27 14:59:34;;;;;;;2.90;1.60;;;17.10;88.20;;;;;;5071476;28;20024;-91
2022/12/27 15:02:32;;;;;;;3.88;1.60;;;17.10;88.20;;;;;;5058854;28;20378;-86